sensor_id;sensor_type;location;lat;lon;timestamp;temperature;humidity
10883;DHT22;5494;51.796;10.952;2023-04-24T00:02:18;13.00;99.90
10883;DHT22;5494;51.796;10.952;2023-04-24T00:04:46;13.00;99.90
10883;DHT22;5494;51.796;10.952;2023-04-24T00:07:16;13.00;99.90
10883;DHT22;5494;51.796;10.952;2023-04-24T00:09:44;13.00;99.90
10883;DHT22;5494;51.796;10.952;2023-04-24T00:12:12;12.90;99.90
10883;DHT22;5494;51.796;10.952;2023-04-24T00:14:41;12.90;99.90
10883;DHT22;5494;51.796;10.952;2023-04-24T00:17:09;12.90;99.90
10883;DHT22;5494;51.796;10.952;2023-04-24T00:19:37;13.00;99.90
10883;DHT22;5494;51.796;10.952;2023-04-24T00:22:05;13.00;99.90
10883;DHT22;5494;51.796;10.952;2023-04-24T00:24:33;13.00;99.90
10883;DHT22;5494;51.796;10.952;2023-04-24T00:27:01;12.90;99.90
10883;DHT22;5494;51.796;10.952;2023-04-24T00:29:29;12.80;99.90
10883;DHT22;5494;51.796;10.952;2023-04-24T00:31:58;12.70;99.90
10883;DHT22;5494;51.796;10.952;2023-04-24T00:34:26;12.70;99.90
10883;DHT22;5494;51.796;10.952;2023-04-24T00:36:54;12.70;99.90
10883;DHT22;5494;51.796;10.952;2023-04-24T00:39:22;12.60;99.90
10883;DHT22;5494;51.796;10.952;2023-04-24T00:41:51;12.60;99.90
10883;DHT22;5494;51.796;10.952;2023-04-24T00:44:19;12.60;99.90
10883;DHT22;5494;51.796;10.952;2023-04-24T00:46:47;12.60;99.90
10883;DHT22;5494;51.796;10.952;2023-04-24T00:49:20;12.50;99.90
10883;DHT22;5494;51.796;10.952;2023-04-24T00:51:49;12.40;99.90
10883;DHT22;5494;51.796;10.952;2023-04-24T00:54:17;12.40;99.90
10883;DHT22;5494;51.796;10.952;2023-04-24T00:56:46;12.40;99.90
10883;DHT22;5494;51.796;10.952;2023-04-24T00:59:16;12.30;99.90
10883;DHT22;5494;51.796;10.952;2023-04-24T01:01:45;12.30;99.90
10883;DHT22;5494;51.796;10.952;2023-04-24T01:04:14;12.30;99.90
10883;DHT22;5494;51.796;10.952;2023-04-24T01:06:44;12.20;99.90
10883;DHT22;5494;51.796;10.952;2023-04-24T01:09:13;12.10;99.90
10883;DHT22;5494;51.796;10.952;2023-04-24T01:11:42;12.10;99.90
10883;DHT22;5494;51.796;10.952;2023-04-24T01:14:11;12.10;99.90
10883;DHT22;5494;51.796;10.952;2023-04-24T01:16:40;12.10;99.90
10883;DHT22;5494;51.796;10.952;2023-04-24T01:19:09;12.00;99.90
10883;DHT22;5494;51.796;10.952;2023-04-24T01:21:39;12.00;99.90
10883;DHT22;5494;51.796;10.952;2023-04-24T01:24:10;12.00;99.90
10883;DHT22;5494;51.796;10.952;2023-04-24T01:26:39;11.90;99.90
10883;DHT22;5494;51.796;10.952;2023-04-24T01:29:07;11.90;99.90
10883;DHT22;5494;51.796;10.952;2023-04-24T01:31:37;11.80;99.90
10883;DHT22;5494;51.796;10.952;2023-04-24T01:34:06;11.80;99.90
10883;DHT22;5494;51.796;10.952;2023-04-24T01:36:35;11.90;99.90
10883;DHT22;5494;51.796;10.952;2023-04-24T01:39:03;11.90;99.90
10883;DHT22;5494;51.796;10.952;2023-04-24T01:41:33;11.80;99.90
10883;DHT22;5494;51.796;10.952;2023-04-24T01:44:02;11.70;99.90
10883;DHT22;5494;51.796;10.952;2023-04-24T01:46:30;11.60;99.90
10883;DHT22;5494;51.796;10.952;2023-04-24T01:49:00;11.60;99.90
10883;DHT22;5494;51.796;10.952;2023-04-24T01:51:28;11.70;99.90
10883;DHT22;5494;51.796;10.952;2023-04-24T01:53:56;11.70;99.90
10883;DHT22;5494;51.796;10.952;2023-04-24T01:56:25;11.70;99.90
10883;DHT22;5494;51.796;10.952;2023-04-24T01:58:58;11.70;99.90
10883;DHT22;5494;51.796;10.952;2023-04-24T02:01:27;11.70;99.90
10883;DHT22;5494;51.796;10.952;2023-04-24T02:04:01;11.60;99.90
10883;DHT22;5494;51.796;10.952;2023-04-24T02:06:30;11.60;99.90
10883;DHT22;5494;51.796;10.952;2023-04-24T02:09:00;11.60;99.90
10883;DHT22;5494;51.796;10.952;2023-04-24T02:11:28;11.60;99.90
10883;DHT22;5494;51.796;10.952;2023-04-24T02:13:58;11.60;99.90
10883;DHT22;5494;51.796;10.952;2023-04-24T02:16:27;11.60;99.90
10883;DHT22;5494;51.796;10.952;2023-04-24T02:18:57;11.60;99.90
10883;DHT22;5494;51.796;10.952;2023-04-24T02:21:25;11.60;99.90
10883;DHT22;5494;51.796;10.952;2023-04-24T02:23:54;11.60;99.90
10883;DHT22;5494;51.796;10.952;2023-04-24T02:26:22;11.60;99.90
10883;DHT22;5494;51.796;10.952;2023-04-24T02:28:51;11.60;99.90
10883;DHT22;5494;51.796;10.952;2023-04-24T02:31:21;11.60;99.90
10883;DHT22;5494;51.796;10.952;2023-04-24T02:33:49;11.50;99.90
10883;DHT22;5494;51.796;10.952;2023-04-24T02:36:17;11.60;99.90
10883;DHT22;5494;51.796;10.952;2023-04-24T02:38:45;11.60;99.90
10883;DHT22;5494;51.796;10.952;2023-04-24T02:41:13;11.50;99.90
10883;DHT22;5494;51.796;10.952;2023-04-24T02:43:42;11.60;99.90
10883;DHT22;5494;51.796;10.952;2023-04-24T02:46:10;11.50;99.90
10883;DHT22;5494;51.796;10.952;2023-04-24T02:48:39;11.50;99.90
10883;DHT22;5494;51.796;10.952;2023-04-24T02:51:07;11.50;99.90
10883;DHT22;5494;51.796;10.952;2023-04-24T02:53:35;11.50;99.90
10883;DHT22;5494;51.796;10.952;2023-04-24T02:56:03;11.50;99.90
10883;DHT22;5494;51.796;10.952;2023-04-24T02:58:32;11.50;99.90
10883;DHT22;5494;51.796;10.952;2023-04-24T03:01:00;11.50;99.90
10883;DHT22;5494;51.796;10.952;2023-04-24T03:03:28;11.40;99.90
10883;DHT22;5494;51.796;10.952;2023-04-24T03:05:58;11.40;99.90
10883;DHT22;5494;51.796;10.952;2023-04-24T03:08:26;11.40;99.90
10883;DHT22;5494;51.796;10.952;2023-04-24T03:10:54;11.40;99.90
10883;DHT22;5494;51.796;10.952;2023-04-24T03:13:22;11.40;99.90
10883;DHT22;5494;51.796;10.952;2023-04-24T03:15:50;11.40;99.90
10883;DHT22;5494;51.796;10.952;2023-04-24T03:18:18;11.30;99.90
10883;DHT22;5494;51.796;10.952;2023-04-24T03:20:48;11.40;99.90
10883;DHT22;5494;51.796;10.952;2023-04-24T03:23:18;11.40;99.90
10883;DHT22;5494;51.796;10.952;2023-04-24T03:25:46;11.30;99.90
10883;DHT22;5494;51.796;10.952;2023-04-24T03:28:15;11.30;99.90
10883;DHT22;5494;51.796;10.952;2023-04-24T03:30:49;11.20;99.90
10883;DHT22;5494;51.796;10.952;2023-04-24T03:33:20;11.20;99.90
10883;DHT22;5494;51.796;10.952;2023-04-24T03:35:57;11.20;99.90
10883;DHT22;5494;51.796;10.952;2023-04-24T03:38:27;11.20;99.90
10883;DHT22;5494;51.796;10.952;2023-04-24T03:41:19;11.20;99.90
10883;DHT22;5494;51.796;10.952;2023-04-24T03:43:52;11.20;99.90
10883;DHT22;5494;51.796;10.952;2023-04-24T03:46:21;11.10;99.90
10883;DHT22;5494;51.796;10.952;2023-04-24T03:48:54;11.10;99.90
10883;DHT22;5494;51.796;10.952;2023-04-24T03:51:26;11.00;99.90
10883;DHT22;5494;51.796;10.952;2023-04-24T03:54:04;11.10;99.90
10883;DHT22;5494;51.796;10.952;2023-04-24T03:56:35;11.10;99.90
10883;DHT22;5494;51.796;10.952;2023-04-24T03:59:03;11.00;99.90
10883;DHT22;5494;51.796;10.952;2023-04-24T04:01:32;11.00;99.90
10883;DHT22;5494;51.796;10.952;2023-04-24T04:04:09;10.90;99.90
10883;DHT22;5494;51.796;10.952;2023-04-24T04:06:38;10.90;99.90
10883;DHT22;5494;51.796;10.952;2023-04-24T04:09:08;10.90;99.90
10883;DHT22;5494;51.796;10.952;2023-04-24T04:11:36;10.90;99.90
10883;DHT22;5494;51.796;10.952;2023-04-24T04:14:04;10.90;99.90
10883;DHT22;5494;51.796;10.952;2023-04-24T04:16:37;11.00;99.90
10883;DHT22;5494;51.796;10.952;2023-04-24T04:19:06;11.00;99.90
10883;DHT22;5494;51.796;10.952;2023-04-24T04:21:35;11.10;99.90
10883;DHT22;5494;51.796;10.952;2023-04-24T04:24:17;11.10;99.90
10883;DHT22;5494;51.796;10.952;2023-04-24T04:26:46;11.10;99.90
10883;DHT22;5494;51.796;10.952;2023-04-24T04:29:30;11.20;99.90
10883;DHT22;5494;51.796;10.952;2023-04-24T04:32:00;11.40;99.90
10883;DHT22;5494;51.796;10.952;2023-04-24T04:34:33;11.40;99.90
10883;DHT22;5494;51.796;10.952;2023-04-24T04:37:01;11.50;99.90
10883;DHT22;5494;51.796;10.952;2023-04-24T04:39:41;11.60;99.90
10883;DHT22;5494;51.796;10.952;2023-04-24T04:42:18;11.80;99.90
10883;DHT22;5494;51.796;10.952;2023-04-24T04:44:46;12.10;99.90
10883;DHT22;5494;51.796;10.952;2023-04-24T04:47:20;12.30;99.90
10883;DHT22;5494;51.796;10.952;2023-04-24T04:49:50;12.60;99.90
10883;DHT22;5494;51.796;10.952;2023-04-24T04:52:22;13.50;99.90
10883;DHT22;5494;51.796;10.952;2023-04-24T04:54:59;13.10;99.90
10883;DHT22;5494;51.796;10.952;2023-04-24T04:57:45;13.30;99.90
10883;DHT22;5494;51.796;10.952;2023-04-24T05:00:14;13.30;99.90
10883;DHT22;5494;51.796;10.952;2023-04-24T05:02:49;13.20;99.90
10883;DHT22;5494;51.796;10.952;2023-04-24T05:05:18;13.10;99.90
10883;DHT22;5494;51.796;10.952;2023-04-24T05:07:46;12.90;99.90
10883;DHT22;5494;51.796;10.952;2023-04-24T05:10:17;12.70;99.90
10883;DHT22;5494;51.796;10.952;2023-04-24T05:12:45;12.70;99.90
10883;DHT22;5494;51.796;10.952;2023-04-24T05:15:13;12.60;99.90
10883;DHT22;5494;51.796;10.952;2023-04-24T05:17:41;12.60;99.90
10883;DHT22;5494;51.796;10.952;2023-04-24T05:20:10;12.60;99.90
10883;DHT22;5494;51.796;10.952;2023-04-24T05:22:38;12.50;99.90
10883;DHT22;5494;51.796;10.952;2023-04-24T05:25:07;12.50;99.90
10883;DHT22;5494;51.796;10.952;2023-04-24T05:27:48;12.60;99.90
10883;DHT22;5494;51.796;10.952;2023-04-24T05:30:17;12.50;99.90
10883;DHT22;5494;51.796;10.952;2023-04-24T05:32:45;12.50;99.90
10883;DHT22;5494;51.796;10.952;2023-04-24T05:35:13;12.60;99.90
10883;DHT22;5494;51.796;10.952;2023-04-24T05:37:42;12.60;99.90
10883;DHT22;5494;51.796;10.952;2023-04-24T05:40:11;12.70;99.90
10883;DHT22;5494;51.796;10.952;2023-04-24T05:42:39;12.80;99.90
10883;DHT22;5494;51.796;10.952;2023-04-24T05:45:09;12.90;99.90
10883;DHT22;5494;51.796;10.952;2023-04-24T05:47:42;13.10;99.90
10883;DHT22;5494;51.796;10.952;2023-04-24T05:50:12;13.30;99.90
10883;DHT22;5494;51.796;10.952;2023-04-24T05:52:40;13.80;99.90
10883;DHT22;5494;51.796;10.952;2023-04-24T05:55:21;14.30;99.90
10883;DHT22;5494;51.796;10.952;2023-04-24T05:57:49;14.40;99.90
10883;DHT22;5494;51.796;10.952;2023-04-24T06:00:19;14.40;99.90
10883;DHT22;5494;51.796;10.952;2023-04-24T06:02:57;14.20;99.90
10883;DHT22;5494;51.796;10.952;2023-04-24T06:05:26;14.10;99.90
10883;DHT22;5494;51.796;10.952;2023-04-24T06:07:54;13.90;99.90
10883;DHT22;5494;51.796;10.952;2023-04-24T06:10:26;13.80;99.90
10883;DHT22;5494;51.796;10.952;2023-04-24T06:12:55;13.70;99.90
10883;DHT22;5494;51.796;10.952;2023-04-24T06:15:30;13.60;99.90
10883;DHT22;5494;51.796;10.952;2023-04-24T06:18:06;13.60;99.90
10883;DHT22;5494;51.796;10.952;2023-04-24T06:20:38;13.50;99.90
10883;DHT22;5494;51.796;10.952;2023-04-24T06:23:08;13.50;99.90
10883;DHT22;5494;51.796;10.952;2023-04-24T06:25:36;13.50;99.90
10883;DHT22;5494;51.796;10.952;2023-04-24T06:28:05;13.50;99.90
10883;DHT22;5494;51.796;10.952;2023-04-24T06:30:34;13.70;99.90
10883;DHT22;5494;51.796;10.952;2023-04-24T06:33:02;13.80;99.90
10883;DHT22;5494;51.796;10.952;2023-04-24T06:35:46;13.80;99.90
10883;DHT22;5494;51.796;10.952;2023-04-24T06:38:14;13.80;99.90
10883;DHT22;5494;51.796;10.952;2023-04-24T06:40:42;13.90;99.90
10883;DHT22;5494;51.796;10.952;2023-04-24T06:43:10;13.80;99.90
10883;DHT22;5494;51.796;10.952;2023-04-24T06:45:40;13.80;99.90
10883;DHT22;5494;51.796;10.952;2023-04-24T06:48:10;13.80;99.90
10883;DHT22;5494;51.796;10.952;2023-04-24T06:50:38;13.80;99.90
10883;DHT22;5494;51.796;10.952;2023-04-24T06:53:06;13.80;99.90
10883;DHT22;5494;51.796;10.952;2023-04-24T06:55:35;13.70;99.90
10883;DHT22;5494;51.796;10.952;2023-04-24T06:58:03;13.60;99.90
10883;DHT22;5494;51.796;10.952;2023-04-24T07:00:32;13.50;99.90
10883;DHT22;5494;51.796;10.952;2023-04-24T07:03:03;13.60;99.90
10883;DHT22;5494;51.796;10.952;2023-04-24T07:05:32;13.70;99.90
10883;DHT22;5494;51.796;10.952;2023-04-24T07:08:01;13.80;99.90
10883;DHT22;5494;51.796;10.952;2023-04-24T07:10:30;14.10;99.90
10883;DHT22;5494;51.796;10.952;2023-04-24T07:13:00;14.40;99.90
10883;DHT22;5494;51.796;10.952;2023-04-24T07:15:29;14.90;99.90
10883;DHT22;5494;51.796;10.952;2023-04-24T07:17:57;15.40;99.90
10883;DHT22;5494;51.796;10.952;2023-04-24T07:20:26;15.40;99.90
10883;DHT22;5494;51.796;10.952;2023-04-24T07:22:54;15.60;99.90
10883;DHT22;5494;51.796;10.952;2023-04-24T07:25:22;15.90;99.90
10883;DHT22;5494;51.796;10.952;2023-04-24T07:27:50;16.60;99.90
10883;DHT22;5494;51.796;10.952;2023-04-24T07:30:18;16.90;99.90
10883;DHT22;5494;51.796;10.952;2023-04-24T07:32:46;16.80;99.90
10883;DHT22;5494;51.796;10.952;2023-04-24T07:35:14;16.50;99.90
10883;DHT22;5494;51.796;10.952;2023-04-24T07:37:44;16.30;99.90
10883;DHT22;5494;51.796;10.952;2023-04-24T07:40:12;16.00;99.90
10883;DHT22;5494;51.796;10.952;2023-04-24T07:42:41;16.10;99.90
10883;DHT22;5494;51.796;10.952;2023-04-24T07:45:10;16.40;99.90
10883;DHT22;5494;51.796;10.952;2023-04-24T07:47:38;16.50;99.90
10883;DHT22;5494;51.796;10.952;2023-04-24T07:50:06;16.10;99.90
10883;DHT22;5494;51.796;10.952;2023-04-24T07:52:34;16.70;99.90
10883;DHT22;5494;51.796;10.952;2023-04-24T07:55:05;17.80;99.90
10883;DHT22;5494;51.796;10.952;2023-04-24T07:57:34;18.30;99.90
10883;DHT22;5494;51.796;10.952;2023-04-24T08:00:03;18.30;99.90
10883;DHT22;5494;51.796;10.952;2023-04-24T08:02:37;18.70;99.90
10883;DHT22;5494;51.796;10.952;2023-04-24T08:05:07;19.20;99.90
10883;DHT22;5494;51.796;10.952;2023-04-24T08:07:36;19.50;99.90
10883;DHT22;5494;51.796;10.952;2023-04-24T08:10:06;19.00;99.90
10883;DHT22;5494;51.796;10.952;2023-04-24T08:12:35;18.50;99.90
10883;DHT22;5494;51.796;10.952;2023-04-24T08:15:04;18.00;99.90
10883;DHT22;5494;51.796;10.952;2023-04-24T08:17:33;17.70;99.90
10883;DHT22;5494;51.796;10.952;2023-04-24T08:20:02;18.00;99.90
10883;DHT22;5494;51.796;10.952;2023-04-24T08:22:31;18.80;99.90
10883;DHT22;5494;51.796;10.952;2023-04-24T08:25:00;19.60;99.90
10883;DHT22;5494;51.796;10.952;2023-04-24T08:27:30;19.60;99.90
10883;DHT22;5494;51.796;10.952;2023-04-24T08:29:58;19.70;99.90
10883;DHT22;5494;51.796;10.952;2023-04-24T08:32:26;20.30;99.90
10883;DHT22;5494;51.796;10.952;2023-04-24T08:34:55;20.90;99.00
10883;DHT22;5494;51.796;10.952;2023-04-24T08:37:25;21.00;97.90
10883;DHT22;5494;51.796;10.952;2023-04-24T08:39:54;20.70;96.00
10883;DHT22;5494;51.796;10.952;2023-04-24T08:42:22;19.70;96.70
10883;DHT22;5494;51.796;10.952;2023-04-24T08:44:52;18.70;99.00
10883;DHT22;5494;51.796;10.952;2023-04-24T08:47:20;17.80;99.90
10883;DHT22;5494;51.796;10.952;2023-04-24T08:49:51;17.70;99.90
10883;DHT22;5494;51.796;10.952;2023-04-24T08:52:20;18.40;99.90
10883;DHT22;5494;51.796;10.952;2023-04-24T08:54:49;19.30;99.80
10883;DHT22;5494;51.796;10.952;2023-04-24T08:57:17;20.20;96.90
10883;DHT22;5494;51.796;10.952;2023-04-24T08:59:46;20.50;95.90
10883;DHT22;5494;51.796;10.952;2023-04-24T09:02:16;21.10;93.90
10883;DHT22;5494;51.796;10.952;2023-04-24T09:04:46;21.50;90.80
10883;DHT22;5494;51.796;10.952;2023-04-24T09:07:16;20.60;89.00
10883;DHT22;5494;51.796;10.952;2023-04-24T09:09:48;20.50;89.10
10883;DHT22;5494;51.796;10.952;2023-04-24T09:12:18;20.60;83.40
10883;DHT22;5494;51.796;10.952;2023-04-24T09:14:48;21.10;79.50
10883;DHT22;5494;51.796;10.952;2023-04-24T09:17:18;21.60;78.50
10883;DHT22;5494;51.796;10.952;2023-04-24T09:19:49;21.90;75.70
10883;DHT22;5494;51.796;10.952;2023-04-24T09:22:17;21.50;72.70
10883;DHT22;5494;51.796;10.952;2023-04-24T09:24:46;20.90;75.00
10883;DHT22;5494;51.796;10.952;2023-04-24T09:27:15;20.60;71.90
10883;DHT22;5494;51.796;10.952;2023-04-24T09:29:54;20.60;67.70
10883;DHT22;5494;51.796;10.952;2023-04-24T09:32:24;20.30;72.60
10883;DHT22;5494;51.796;10.952;2023-04-24T09:35:06;20.20;74.40
10883;DHT22;5494;51.796;10.952;2023-04-24T09:37:40;20.70;73.90
10883;DHT22;5494;51.796;10.952;2023-04-24T09:40:14;21.20;70.70
10883;DHT22;5494;51.796;10.952;2023-04-24T09:42:44;21.50;65.90
10883;DHT22;5494;51.796;10.952;2023-04-24T09:45:13;21.80;66.30
10883;DHT22;5494;51.796;10.952;2023-04-24T09:47:43;22.30;61.50
10883;DHT22;5494;51.796;10.952;2023-04-24T09:50:13;22.50;57.90
10883;DHT22;5494;51.796;10.952;2023-04-24T09:52:44;22.20;56.70
10883;DHT22;5494;51.796;10.952;2023-04-24T09:55:16;22.10;58.20
10883;DHT22;5494;51.796;10.952;2023-04-24T09:57:50;22.20;55.70
10883;DHT22;5494;51.796;10.952;2023-04-24T10:00:22;21.60;52.60
10883;DHT22;5494;51.796;10.952;2023-04-24T10:02:57;21.10;55.50
10883;DHT22;5494;51.796;10.952;2023-04-24T10:05:29;21.00;56.90
10883;DHT22;5494;51.796;10.952;2023-04-24T10:08:05;21.00;55.60
10883;DHT22;5494;51.796;10.952;2023-04-24T10:10:35;21.20;55.80
10883;DHT22;5494;51.796;10.952;2023-04-24T10:13:07;21.90;56.20
10883;DHT22;5494;51.796;10.952;2023-04-24T10:15:36;22.40;54.30
10883;DHT22;5494;51.796;10.952;2023-04-24T10:18:07;22.80;53.30
10883;DHT22;5494;51.796;10.952;2023-04-24T10:20:39;22.80;51.60
10883;DHT22;5494;51.796;10.952;2023-04-24T10:23:07;22.30;53.10
10883;DHT22;5494;51.796;10.952;2023-04-24T10:25:36;21.30;54.20
10883;DHT22;5494;51.796;10.952;2023-04-24T10:28:05;20.70;55.30
10883;DHT22;5494;51.796;10.952;2023-04-24T10:30:36;20.40;59.40
10883;DHT22;5494;51.796;10.952;2023-04-24T10:33:07;20.40;58.90
10883;DHT22;5494;51.796;10.952;2023-04-24T10:35:40;20.00;58.70
10883;DHT22;5494;51.796;10.952;2023-04-24T10:38:13;19.30;63.70
10883;DHT22;5494;51.796;10.952;2023-04-24T10:40:44;19.00;60.50
10883;DHT22;5494;51.796;10.952;2023-04-24T10:43:17;18.70;63.70
10883;DHT22;5494;51.796;10.952;2023-04-24T10:46:00;18.90;63.40
10883;DHT22;5494;51.796;10.952;2023-04-24T10:48:31;18.90;62.70
10883;DHT22;5494;51.796;10.952;2023-04-24T10:51:00;18.90;65.10
10883;DHT22;5494;51.796;10.952;2023-04-24T10:53:29;18.50;66.80
10883;DHT22;5494;51.796;10.952;2023-04-24T10:56:02;18.40;70.80
10883;DHT22;5494;51.796;10.952;2023-04-24T10:58:39;18.40;71.60
10883;DHT22;5494;51.796;10.952;2023-04-24T11:01:23;18.20;72.70
10883;DHT22;5494;51.796;10.952;2023-04-24T11:03:57;17.90;72.70
10883;DHT22;5494;51.796;10.952;2023-04-24T11:06:30;17.60;75.20
10883;DHT22;5494;51.796;10.952;2023-04-24T11:09:03;17.50;78.70
10883;DHT22;5494;51.796;10.952;2023-04-24T11:11:33;17.80;78.80
10883;DHT22;5494;51.796;10.952;2023-04-24T11:14:03;17.90;71.70
10883;DHT22;5494;51.796;10.952;2023-04-24T11:16:44;17.90;73.70
10883;DHT22;5494;51.796;10.952;2023-04-24T11:19:22;17.70;75.20
10883;DHT22;5494;51.796;10.952;2023-04-24T11:21:57;17.90;73.70
10883;DHT22;5494;51.796;10.952;2023-04-24T11:24:32;18.10;72.10
10883;DHT22;5494;51.796;10.952;2023-04-24T11:27:15;18.10;72.00
10883;DHT22;5494;51.796;10.952;2023-04-24T11:29:47;18.20;73.00
10883;DHT22;5494;51.796;10.952;2023-04-24T11:32:25;18.00;73.50
10883;DHT22;5494;51.796;10.952;2023-04-24T11:34:58;17.70;77.70
10883;DHT22;5494;51.796;10.952;2023-04-24T11:37:30;17.60;77.70
10883;DHT22;5494;51.796;10.952;2023-04-24T11:40:02;17.60;79.60
10883;DHT22;5494;51.796;10.952;2023-04-24T11:42:34;17.50;81.50
10883;DHT22;5494;51.796;10.952;2023-04-24T11:45:07;17.50;80.00
10883;DHT22;5494;51.796;10.952;2023-04-24T11:47:37;17.30;82.90
10883;DHT22;5494;51.796;10.952;2023-04-24T11:50:10;17.10;84.20
10883;DHT22;5494;51.796;10.952;2023-04-24T11:52:41;17.00;85.40
10883;DHT22;5494;51.796;10.952;2023-04-24T11:55:23;17.10;86.20
10883;DHT22;5494;51.796;10.952;2023-04-24T11:57:54;17.30;88.60
10883;DHT22;5494;51.796;10.952;2023-04-24T12:00:28;17.60;86.70
10883;DHT22;5494;51.796;10.952;2023-04-24T12:03:06;17.70;87.70
10883;DHT22;5494;51.796;10.952;2023-04-24T12:05:40;17.70;87.70
10883;DHT22;5494;51.796;10.952;2023-04-24T12:08:08;17.80;89.70
10883;DHT22;5494;51.796;10.952;2023-04-24T12:10:36;17.60;88.80
10883;DHT22;5494;51.796;10.952;2023-04-24T12:13:04;17.60;89.30
10883;DHT22;5494;51.796;10.952;2023-04-24T12:15:32;17.30;90.10
10883;DHT22;5494;51.796;10.952;2023-04-24T12:18:00;17.00;91.10
10883;DHT22;5494;51.796;10.952;2023-04-24T12:20:29;17.00;92.40
10883;DHT22;5494;51.796;10.952;2023-04-24T12:23:01;17.30;92.00
10883;DHT22;5494;51.796;10.952;2023-04-24T12:25:30;17.30;90.30
10883;DHT22;5494;51.796;10.952;2023-04-24T12:28:09;17.10;90.20
10883;DHT22;5494;51.796;10.952;2023-04-24T12:30:41;17.00;91.50
10883;DHT22;5494;51.796;10.952;2023-04-24T12:33:11;17.20;91.70
10883;DHT22;5494;51.796;10.952;2023-04-24T12:35:40;17.20;90.90
10883;DHT22;5494;51.796;10.952;2023-04-24T12:38:11;17.10;91.10
10883;DHT22;5494;51.796;10.952;2023-04-24T12:40:41;16.90;91.20
10883;DHT22;5494;51.796;10.952;2023-04-24T12:43:14;16.80;92.10
10883;DHT22;5494;51.796;10.952;2023-04-24T12:45:42;16.80;92.20
10883;DHT22;5494;51.796;10.952;2023-04-24T12:48:11;16.60;93.50
10883;DHT22;5494;51.796;10.952;2023-04-24T12:50:41;16.20;95.50
10883;DHT22;5494;51.796;10.952;2023-04-24T12:53:14;15.80;99.90
10883;DHT22;5494;51.796;10.952;2023-04-24T12:55:43;15.40;99.90
10883;DHT22;5494;51.796;10.952;2023-04-24T12:58:12;15.20;99.90
10883;DHT22;5494;51.796;10.952;2023-04-24T13:00:40;15.00;99.90
10883;DHT22;5494;51.796;10.952;2023-04-24T13:03:10;15.00;99.90
10883;DHT22;5494;51.796;10.952;2023-04-24T13:05:38;15.00;99.90
10883;DHT22;5494;51.796;10.952;2023-04-24T13:08:06;14.60;99.90
10883;DHT22;5494;51.796;10.952;2023-04-24T13:10:36;14.50;99.90
10883;DHT22;5494;51.796;10.952;2023-04-24T13:13:04;14.80;99.90
10883;DHT22;5494;51.796;10.952;2023-04-24T13:15:32;15.00;99.90
10883;DHT22;5494;51.796;10.952;2023-04-24T13:18:02;15.10;99.90
10883;DHT22;5494;51.796;10.952;2023-04-24T13:20:30;15.20;99.90
10883;DHT22;5494;51.796;10.952;2023-04-24T13:22:59;15.10;99.90
10883;DHT22;5494;51.796;10.952;2023-04-24T13:25:27;14.70;99.90
10883;DHT22;5494;51.796;10.952;2023-04-24T13:27:57;14.10;99.90
10883;DHT22;5494;51.796;10.952;2023-04-24T13:30:26;13.70;99.90
10883;DHT22;5494;51.796;10.952;2023-04-24T13:32:54;13.80;99.90
10883;DHT22;5494;51.796;10.952;2023-04-24T13:35:22;13.90;99.90
10883;DHT22;5494;51.796;10.952;2023-04-24T13:37:50;14.20;99.90
10883;DHT22;5494;51.796;10.952;2023-04-24T13:40:18;14.30;99.90
10883;DHT22;5494;51.796;10.952;2023-04-24T13:42:46;14.10;99.90
10883;DHT22;5494;51.796;10.952;2023-04-24T13:45:16;14.10;99.90
10883;DHT22;5494;51.796;10.952;2023-04-24T13:47:51;14.20;99.90
10883;DHT22;5494;51.796;10.952;2023-04-24T13:50:20;14.50;99.90
10883;DHT22;5494;51.796;10.952;2023-04-24T13:52:49;14.70;99.90
10883;DHT22;5494;51.796;10.952;2023-04-24T13:55:17;14.80;99.90
10883;DHT22;5494;51.796;10.952;2023-04-24T13:57:45;14.70;99.90
10883;DHT22;5494;51.796;10.952;2023-04-24T14:00:13;14.80;99.90
10883;DHT22;5494;51.796;10.952;2023-04-24T14:02:44;14.70;99.90
10883;DHT22;5494;51.796;10.952;2023-04-24T14:05:12;14.50;99.90
10883;DHT22;5494;51.796;10.952;2023-04-24T14:07:41;14.20;99.90
10883;DHT22;5494;51.796;10.952;2023-04-24T14:10:10;14.20;99.90
10883;DHT22;5494;51.796;10.952;2023-04-24T14:12:38;14.10;99.90
10883;DHT22;5494;51.796;10.952;2023-04-24T14:15:07;14.20;99.90
10883;DHT22;5494;51.796;10.952;2023-04-24T14:17:38;14.20;99.90
10883;DHT22;5494;51.796;10.952;2023-04-24T14:20:07;14.30;99.90
10883;DHT22;5494;51.796;10.952;2023-04-24T14:22:36;14.10;99.90
10883;DHT22;5494;51.796;10.952;2023-04-24T14:25:04;14.00;99.90
10883;DHT22;5494;51.796;10.952;2023-04-24T14:27:33;13.80;99.90
10883;DHT22;5494;51.796;10.952;2023-04-24T14:30:02;13.60;99.90
10883;DHT22;5494;51.796;10.952;2023-04-24T14:32:31;13.60;99.90
10883;DHT22;5494;51.796;10.952;2023-04-24T14:35:00;13.70;99.90
10883;DHT22;5494;51.796;10.952;2023-04-24T14:37:28;13.80;99.90
10883;DHT22;5494;51.796;10.952;2023-04-24T14:39:56;13.80;99.90
10883;DHT22;5494;51.796;10.952;2023-04-24T14:42:44;14.00;99.90
10883;DHT22;5494;51.796;10.952;2023-04-24T14:45:12;14.00;99.90
10883;DHT22;5494;51.796;10.952;2023-04-24T14:47:40;13.80;99.90
10883;DHT22;5494;51.796;10.952;2023-04-24T14:50:09;13.70;99.90
10883;DHT22;5494;51.796;10.952;2023-04-24T14:52:39;13.50;99.90
10883;DHT22;5494;51.796;10.952;2023-04-24T14:55:08;13.40;99.90
10883;DHT22;5494;51.796;10.952;2023-04-24T14:57:36;13.30;99.90
10883;DHT22;5494;51.796;10.952;2023-04-24T15:00:05;13.10;99.90
10883;DHT22;5494;51.796;10.952;2023-04-24T15:02:36;12.90;99.90
10883;DHT22;5494;51.796;10.952;2023-04-24T15:05:10;12.90;99.90
10883;DHT22;5494;51.796;10.952;2023-04-24T15:07:39;12.90;99.90
10883;DHT22;5494;51.796;10.952;2023-04-24T15:10:08;12.70;99.90
10883;DHT22;5494;51.796;10.952;2023-04-24T15:12:37;12.50;99.90
10883;DHT22;5494;51.796;10.952;2023-04-24T15:15:07;12.30;99.90
10883;DHT22;5494;51.796;10.952;2023-04-24T15:17:36;12.50;99.90
10883;DHT22;5494;51.796;10.952;2023-04-24T15:20:05;12.60;99.90
10883;DHT22;5494;51.796;10.952;2023-04-24T15:22:35;12.60;99.90
10883;DHT22;5494;51.796;10.952;2023-04-24T15:25:04;12.70;99.90
10883;DHT22;5494;51.796;10.952;2023-04-24T15:27:41;12.70;99.90
10883;DHT22;5494;51.796;10.952;2023-04-24T15:30:10;12.80;99.90
10883;DHT22;5494;51.796;10.952;2023-04-24T15:32:39;12.60;99.90
10883;DHT22;5494;51.796;10.952;2023-04-24T15:35:08;12.50;99.90
10883;DHT22;5494;51.796;10.952;2023-04-24T15:37:38;12.60;99.90
10883;DHT22;5494;51.796;10.952;2023-04-24T15:40:06;12.50;99.90
10883;DHT22;5494;51.796;10.952;2023-04-24T15:42:37;12.40;99.90
10883;DHT22;5494;51.796;10.952;2023-04-24T15:45:05;12.20;99.90
10883;DHT22;5494;51.796;10.952;2023-04-24T15:47:34;12.10;99.90
10883;DHT22;5494;51.796;10.952;2023-04-24T15:50:03;12.00;99.90